createdAt,value
2018-12-24T00:02:10.402Z,51.29
2018-12-24T00:04:36.433Z,51.21
2018-12-24T00:07:02.417Z,51.18
2018-12-24T00:09:28.448Z,51.16
2018-12-24T00:11:54.434Z,51.16
2018-12-24T00:14:20.409Z,51.08
2018-12-24T00:16:46.426Z,51.11
2018-12-24T00:19:12.453Z,51.06
2018-12-24T00:21:38.457Z,50.99
2018-12-24T00:24:04.478Z,50.98
2018-12-24T00:26:30.437Z,50.94
2018-12-24T00:28:56.422Z,50.92
2018-12-24T00:31:22.445Z,50.89
2018-12-24T00:33:48.472Z,50.89
2018-12-24T00:36:14.440Z,50.86
2018-12-24T00:38:40.420Z,50.85
2018-12-24T00:41:06.455Z,50.79
2018-12-24T00:43:32.420Z,50.80
2018-12-24T00:45:58.443Z,50.76
2018-12-24T00:48:24.440Z,50.73
2018-12-24T00:50:50.465Z,50.72
2018-12-24T00:53:16.493Z,50.70
2018-12-24T00:55:42.433Z,50.67
2018-12-24T00:58:08.454Z,50.63
2018-12-24T01:00:34.434Z,50.63
2018-12-24T01:03:00.470Z,50.61
2018-12-24T01:05:26.465Z,50.60
2018-12-24T01:07:52.479Z,50.55
2018-12-24T01:10:18.515Z,50.53
2018-12-24T01:12:44.498Z,50.50
2018-12-24T01:15:10.479Z,50.52
2018-12-24T01:17:36.495Z,50.46
2018-12-24T01:20:02.483Z,50.44
2018-12-24T01:22:28.475Z,50.43
2018-12-24T01:24:54.479Z,50.38
2018-12-24T01:27:20.472Z,50.42
2018-12-24T01:29:46.434Z,50.36
2018-12-24T01:32:12.453Z,50.32
2018-12-24T01:34:38.476Z,50.31
2018-12-24T01:37:04.453Z,50.34
2018-12-24T01:39:30.457Z,50.32
2018-12-24T01:41:56.430Z,50.28
2018-12-24T01:44:22.473Z,50.25
2018-12-24T01:46:48.487Z,50.24
2018-12-24T01:49:14.446Z,50.23
2018-12-24T01:51:40.455Z,50.21
2018-12-24T01:54:06.441Z,50.22
2018-12-24T01:56:32.420Z,50.14
2018-12-24T01:58:58.476Z,50.14
2018-12-24T02:01:24.466Z,50.15
2018-12-24T02:03:50.442Z,50.11
2018-12-24T02:06:16.463Z,50.12
2018-12-24T02:08:42.446Z,50.05
2018-12-24T02:11:08.415Z,50.11
2018-12-24T02:13:34.465Z,50.08
2018-12-24T02:16:00.432Z,50.00
2018-12-24T02:18:26.418Z,50.03
2018-12-24T02:20:52.428Z,49.99
2018-12-24T02:23:18.407Z,49.98
2018-12-24T02:25:44.426Z,49.92
2018-12-24T02:28:10.405Z,49.94
2018-12-24T02:30:36.399Z,49.89
2018-12-24T02:33:02.409Z,49.97
2018-12-24T02:35:28.379Z,49.94
2018-12-24T02:37:54.425Z,49.93
2018-12-24T02:40:20.400Z,49.88
2018-12-24T02:42:52.387Z,49.91
2018-12-24T02:45:12.387Z,49.86
2018-12-24T02:47:38.371Z,49.84
2018-12-24T02:50:04.353Z,49.75
2018-12-24T02:52:30.366Z,49.79
2018-12-24T02:54:56.369Z,49.74
2018-12-24T02:57:22.386Z,49.80
2018-12-24T02:59:48.368Z,49.83
2018-12-24T03:02:14.378Z,49.79
2018-12-24T03:04:40.389Z,49.68
2018-12-24T03:07:06.386Z,49.68
2018-12-24T03:09:32.367Z,49.67
2018-12-24T03:11:58.403Z,49.73
2018-12-24T03:14:24.372Z,49.63
2018-12-24T03:16:50.350Z,49.59
2018-12-24T03:19:16.348Z,49.56
2018-12-24T03:21:42.313Z,49.67
2018-12-24T03:24:08.303Z,49.63
2018-12-24T03:26:34.312Z,49.61
2018-12-24T03:29:00.281Z,49.54
2018-12-24T03:31:26.313Z,49.60
2018-12-24T03:33:52.306Z,49.61
2018-12-24T03:36:18.269Z,49.59
2018-12-24T03:38:44.242Z,49.64
2018-12-24T03:41:10.404Z,49.50
2018-12-24T03:43:36.256Z,49.49
2018-12-24T03:46:02.254Z,49.58
2018-12-24T03:48:28.219Z,49.56
2018-12-24T03:50:54.202Z,49.42
2018-12-24T03:53:20.225Z,49.39
2018-12-24T03:55:46.201Z,49.46
2018-12-24T03:58:12.198Z,49.36
2018-12-24T04:00:38.225Z,49.40
2018-12-24T04:03:04.186Z,49.40
2018-12-24T04:05:30.170Z,49.42
2018-12-24T04:07:56.179Z,49.33
2018-12-24T04:10:22.175Z,49.35
2018-12-24T04:12:48.167Z,49.45
2018-12-24T04:15:14.186Z,49.40
2018-12-24T04:17:40.147Z,49.39
2018-12-24T04:20:06.136Z,49.31
2018-12-24T04:22:32.133Z,49.41
2018-12-24T04:24:58.133Z,49.37
2018-12-24T04:27:24.126Z,49.39
2018-12-24T04:29:50.125Z,49.42
2018-12-24T04:32:16.094Z,49.33
2018-12-24T04:34:42.105Z,49.37
2018-12-24T04:37:08.074Z,49.25
2018-12-24T04:39:34.060Z,49.23
2018-12-24T04:42:00.078Z,49.34
2018-12-24T04:44:26.060Z,49.22
2018-12-24T04:46:52.030Z,49.25
2018-12-24T04:49:18.069Z,49.28
2018-12-24T04:51:44.053Z,49.22
2018-12-24T04:54:10.066Z,49.23
2018-12-24T04:56:36.085Z,49.23
2018-12-24T04:59:02.093Z,49.18
2018-12-24T05:01:28.068Z,49.28
2018-12-24T05:03:54.081Z,49.18
2018-12-24T05:06:20.083Z,49.22
2018-12-24T05:08:46.064Z,49.27
2018-12-24T05:11:12.073Z,49.24
2018-12-24T05:13:41.021Z,49.19
2018-12-24T05:16:04.058Z,49.06
2018-12-24T05:18:30.050Z,49.21
2018-12-24T05:20:56.019Z,49.15
2018-12-24T05:23:22.029Z,49.09
2018-12-24T05:25:48.022Z,49.19
2018-12-24T05:28:14.011Z,49.22
2018-12-24T05:30:40.057Z,49.40
2018-12-24T05:33:06.037Z,49.43
2018-12-24T05:35:32.067Z,49.47
2018-12-24T05:37:58.083Z,49.48
2018-12-24T05:40:24.078Z,49.48
2018-12-24T05:42:50.053Z,49.45
2018-12-24T05:45:16.070Z,49.44
2018-12-24T05:47:42.113Z,49.49
2018-12-24T05:50:08.084Z,49.43
2018-12-24T05:52:34.115Z,49.33
2018-12-24T05:55:00.256Z,49.31
2018-12-24T05:57:26.082Z,49.39
2018-12-24T05:59:52.100Z,49.38
2018-12-24T06:02:18.121Z,49.45
2018-12-24T06:04:44.166Z,49.43
2018-12-24T06:07:10.204Z,49.49
2018-12-24T06:09:36.141Z,49.55
2018-12-24T06:12:02.185Z,49.58
2018-12-24T06:14:28.161Z,49.61
2018-12-24T06:16:54.122Z,49.61
2018-12-24T06:19:20.126Z,49.62
2018-12-24T06:21:46.111Z,49.65
2018-12-24T06:24:12.091Z,49.63
2018-12-24T06:26:38.116Z,49.69
2018-12-24T06:29:04.122Z,49.73
2018-12-24T06:31:30.107Z,49.73
2018-12-24T06:33:56.119Z,49.74
2018-12-24T06:36:22.153Z,49.73
2018-12-24T06:38:48.123Z,49.71
2018-12-24T06:41:14.115Z,49.68
2018-12-24T06:43:40.136Z,49.70
2018-12-24T06:46:06.120Z,49.57
2018-12-24T06:48:32.119Z,49.62
2018-12-24T06:50:58.615Z,49.64
2018-12-24T06:53:24.577Z,49.61
2018-12-24T06:55:50.602Z,49.61
2018-12-24T06:58:16.591Z,49.62
2018-12-24T07:00:42.574Z,49.59
2018-12-24T07:03:08.588Z,49.65
2018-12-24T07:05:34.599Z,49.61
2018-12-24T07:08:00.584Z,49.63
2018-12-24T07:10:26.612Z,49.63
2018-12-24T07:12:52.580Z,49.66
2018-12-24T07:15:18.563Z,49.70
2018-12-24T07:17:44.695Z,49.67
2018-12-24T07:20:10.676Z,49.73
2018-12-24T07:22:36.665Z,49.78
2018-12-24T07:25:02.683Z,49.75
2018-12-24T07:27:28.662Z,49.74
2018-12-24T07:29:54.644Z,49.78
2018-12-24T07:32:21.370Z,49.90
2018-12-24T07:34:47.355Z,49.88
2018-12-24T07:37:13.383Z,49.89
2018-12-24T07:39:39.883Z,49.83
2018-12-24T07:42:05.859Z,49.79
2018-12-24T07:44:31.860Z,49.81
2018-12-24T07:46:58.518Z,49.81
2018-12-24T07:49:24.498Z,49.81
2018-12-24T07:51:50.481Z,49.84
2018-12-24T07:54:16.581Z,49.95
2018-12-24T07:56:42.559Z,49.98
2018-12-24T07:59:08.686Z,50.02
2018-12-24T08:01:34.961Z,50.22
2018-12-24T08:04:04.179Z,50.21
2018-12-24T08:06:30.928Z,50.34
2018-12-24T08:08:57.257Z,50.23
2018-12-24T08:11:23.445Z,50.52
2018-12-24T08:13:50.385Z,50.47
2018-12-24T08:16:16.351Z,50.62
2018-12-24T08:18:43.067Z,50.47
2018-12-24T08:21:09.092Z,50.67
2018-12-24T08:23:35.256Z,50.56
2018-12-24T08:26:01.247Z,50.55
2018-12-24T08:28:27.276Z,50.94
2018-12-24T08:30:53.240Z,51.25
2018-12-24T08:33:19.241Z,50.98
2018-12-24T08:35:45.853Z,50.90
2018-12-24T08:38:11.902Z,50.98
2018-12-24T08:40:37.923Z,50.98
2018-12-24T08:43:03.949Z,51.05
2018-12-24T08:45:29.982Z,51.48
2018-12-24T08:47:55.967Z,51.60
2018-12-24T08:50:21.965Z,51.46
2018-12-24T08:52:48.000Z,51.61
2018-12-24T08:55:14.046Z,51.79
2018-12-24T08:57:40.037Z,51.33
2018-12-24T09:00:06.051Z,51.41
2018-12-24T09:02:32.060Z,51.47
2018-12-24T09:04:58.044Z,51.47
2018-12-24T09:07:24.057Z,51.37
2018-12-24T09:09:50.032Z,51.43
2018-12-24T09:12:16.003Z,51.49
2018-12-24T09:14:50.034Z,54.86
2018-12-24T09:17:09.328Z,51.60
2018-12-24T09:19:35.480Z,51.53
2018-12-24T09:22:04.110Z,51.71
2018-12-24T09:24:30.077Z,52.00
2018-12-24T09:26:56.296Z,51.87
2018-12-24T09:29:23.210Z,51.84
2018-12-24T09:31:49.256Z,51.51
2018-12-24T09:34:15.652Z,51.30
2018-12-24T09:36:42.413Z,51.46
2018-12-24T09:39:08.432Z,51.80
2018-12-24T09:41:34.485Z,51.43
2018-12-24T09:44:00.693Z,51.45
2018-12-24T09:46:26.972Z,51.49
2018-12-24T09:48:52.952Z,51.90
2018-12-24T09:51:19.498Z,51.81
2018-12-24T09:53:45.717Z,52.10
2018-12-24T09:56:12.546Z,52.07
2018-12-24T09:58:38.544Z,51.78
2018-12-24T10:01:04.530Z,51.80
2018-12-24T10:03:31.598Z,52.23
2018-12-24T10:05:58.023Z,52.14
2018-12-24T10:08:24.053Z,52.10
2018-12-24T10:10:50.019Z,51.94
2018-12-24T10:13:16.044Z,52.31
2018-12-24T10:15:42.083Z,51.97
2018-12-24T10:18:08.065Z,51.79
2018-12-24T10:20:34.059Z,52.13
2018-12-24T10:23:00.105Z,52.26
2018-12-24T10:25:26.079Z,51.88
2018-12-24T10:27:52.063Z,51.82
2018-12-24T10:30:18.097Z,52.07
2018-12-24T10:32:44.091Z,51.91
2018-12-24T10:35:10.077Z,52.30
2018-12-24T10:37:36.110Z,52.07
2018-12-24T10:40:02.083Z,52.13
2018-12-24T10:42:28.051Z,51.76
2018-12-24T10:44:54.278Z,51.93
2018-12-24T10:47:20.278Z,51.92
2018-12-24T10:49:46.261Z,52.00
2018-12-24T10:52:12.597Z,52.05
2018-12-24T10:54:38.577Z,52.13
2018-12-24T10:57:04.568Z,52.33
2018-12-24T10:59:30.582Z,52.70
2018-12-24T11:01:56.586Z,53.34
2018-12-24T11:04:22.557Z,54.25
2018-12-24T11:06:48.583Z,53.81
2018-12-24T11:09:14.606Z,53.19
2018-12-24T11:11:40.567Z,53.44
2018-12-24T11:14:06.921Z,53.35
2018-12-24T11:16:32.912Z,53.50
2018-12-24T11:18:58.886Z,53.53
2018-12-24T11:21:24.953Z,53.60
2018-12-24T11:23:50.938Z,53.11
2018-12-24T11:26:16.961Z,53.42
2018-12-24T11:28:42.958Z,53.36
2018-12-24T11:31:08.960Z,53.11
2018-12-24T11:33:34.934Z,52.85
2018-12-24T11:36:01.010Z,52.49
2018-12-24T11:38:26.995Z,52.38
2018-12-24T11:40:52.975Z,52.46
2018-12-24T11:43:19.313Z,51.91
2018-12-24T11:45:45.276Z,51.71
2018-12-24T11:48:11.379Z,51.36
2018-12-24T11:50:37.380Z,51.12
2018-12-24T11:53:03.402Z,50.83
2018-12-24T11:55:29.380Z,50.78
2018-12-24T11:57:55.391Z,50.74
2018-12-24T12:00:21.375Z,50.70
2018-12-24T12:02:47.368Z,50.77
2018-12-24T12:05:13.545Z,50.72
2018-12-24T12:07:39.562Z,50.83
2018-12-24T12:10:05.542Z,50.96
2018-12-24T12:12:31.529Z,51.09
2018-12-24T12:14:57.547Z,51.19
2018-12-24T12:17:23.572Z,51.28
2018-12-24T12:19:50.192Z,51.43
2018-12-24T12:22:16.166Z,51.52
2018-12-24T12:24:42.328Z,51.51
2018-12-24T12:27:09.380Z,51.50
2018-12-24T12:29:35.368Z,51.58
2018-12-24T12:32:01.359Z,51.55
2018-12-24T12:34:27.561Z,51.56
2018-12-24T12:36:53.584Z,51.33
2018-12-24T12:39:19.581Z,51.31
2018-12-24T12:41:45.631Z,51.22
2018-12-24T12:44:11.622Z,51.18
2018-12-24T12:46:37.598Z,51.10
2018-12-24T12:49:04.093Z,50.98
2018-12-24T12:51:30.066Z,50.89
2018-12-24T12:53:56.078Z,50.86
2018-12-24T12:56:22.083Z,50.85
2018-12-24T12:58:48.067Z,50.92
2018-12-24T13:01:14.036Z,50.86
2018-12-24T13:03:40.147Z,50.79
2018-12-24T13:06:06.164Z,50.76
2018-12-24T13:08:32.156Z,50.75
2018-12-24T13:10:58.647Z,50.65
2018-12-24T13:13:24.801Z,50.65
2018-12-24T13:15:50.807Z,50.69
2018-12-24T13:18:16.839Z,50.70
2018-12-24T13:20:42.844Z,50.67
2018-12-24T13:23:08.847Z,50.58
2018-12-24T13:25:34.858Z,50.63
2018-12-24T13:28:00.925Z,50.38
2018-12-24T13:30:26.887Z,50.25
2018-12-24T13:32:55.226Z,49.97
2018-12-24T13:35:21.731Z,49.93
2018-12-24T13:37:47.698Z,49.87
2018-12-24T13:40:13.851Z,49.60
2018-12-24T13:42:39.980Z,49.64
2018-12-24T13:45:06.018Z,49.54
2018-12-24T13:47:31.981Z,49.52
2018-12-24T13:49:57.968Z,49.64
2018-12-24T13:52:23.984Z,49.63
2018-12-24T13:54:49.977Z,49.57
2018-12-24T13:57:15.968Z,49.69
2018-12-24T13:59:41.999Z,49.42
2018-12-24T14:02:07.982Z,49.46
2018-12-24T14:04:33.950Z,49.35
2018-12-24T14:06:59.996Z,49.38
2018-12-24T14:09:25.968Z,49.40
2018-12-24T14:11:51.945Z,49.35
2018-12-24T14:14:18.049Z,49.36
2018-12-24T14:16:43.990Z,49.45
2018-12-24T14:19:09.957Z,49.33
2018-12-24T14:21:35.978Z,49.42
2018-12-24T14:24:01.956Z,49.70
2018-12-24T14:26:27.983Z,49.31
2018-12-24T14:28:54.015Z,49.47
2018-12-24T14:31:19.994Z,49.48
2018-12-24T14:33:45.965Z,49.65
2018-12-24T14:36:11.988Z,49.61
2018-12-24T14:38:37.978Z,49.77
2018-12-24T14:41:03.980Z,49.95
2018-12-24T14:43:30.029Z,50.14
2018-12-24T14:45:56.040Z,50.40
2018-12-24T14:48:24.350Z,50.26
2018-12-24T14:50:52.214Z,50.32
2018-12-24T14:53:26.947Z,50.41
2018-12-24T14:55:52.935Z,50.35
2018-12-24T14:58:19.248Z,50.36
2018-12-24T15:00:45.253Z,50.30
2018-12-24T15:03:11.264Z,50.42
2018-12-24T15:05:38.933Z,50.41
2018-12-24T15:08:08.315Z,50.52
2018-12-24T15:10:38.393Z,50.55
2018-12-24T15:13:12.236Z,50.55
2018-12-24T15:15:41.874Z,50.53
2018-12-24T15:18:07.863Z,50.53
2018-12-24T15:20:35.050Z,50.57
2018-12-24T15:23:01.060Z,50.57
2018-12-24T15:25:28.418Z,50.53
2018-12-24T15:27:59.340Z,50.59
2018-12-24T15:30:25.484Z,50.59
2018-12-24T15:32:51.986Z,50.55
2018-12-24T15:35:18.485Z,50.46
2018-12-24T15:40:45.227Z,50.34
2018-12-24T15:46:18.223Z,50.13
2018-12-24T15:48:58.587Z,49.94
2018-12-24T15:51:46.713Z,49.98
2018-12-24T15:54:23.418Z,49.85
2018-12-24T15:56:56.432Z,49.93
2018-12-24T16:02:33.962Z,49.81
2018-12-24T16:07:27.004Z,50.12
2018-12-24T16:10:04.395Z,50.16
2018-12-24T16:12:36.662Z,50.15
2018-12-24T16:15:02.645Z,50.09
2018-12-24T16:17:28.625Z,50.02
2018-12-24T16:19:54.687Z,49.97
2018-12-24T16:22:20.790Z,50.10
2018-12-24T16:24:46.782Z,49.93
2018-12-24T16:27:12.811Z,50.05
2018-12-24T16:29:38.831Z,50.20
2018-12-24T16:32:04.854Z,50.28
2018-12-24T16:34:30.855Z,50.30
2018-12-24T16:36:56.843Z,50.56
2018-12-24T16:39:22.891Z,50.52
2018-12-24T16:41:48.861Z,50.57
2018-12-24T16:44:14.856Z,50.76
2018-12-24T16:46:40.914Z,50.69
2018-12-24T16:49:06.931Z,50.71
2018-12-24T16:51:32.933Z,50.81
2018-12-24T16:53:58.972Z,50.74
2018-12-24T16:56:24.959Z,50.85
2018-12-24T16:58:50.942Z,50.79
2018-12-24T17:01:16.978Z,50.91
2018-12-24T17:03:42.991Z,50.88
2018-12-24T17:06:09.037Z,50.77
2018-12-24T17:08:35.088Z,50.87
2018-12-24T17:11:01.064Z,50.76
2018-12-24T17:13:27.079Z,50.87
2018-12-24T17:15:53.178Z,50.86
2018-12-24T17:18:19.852Z,51.18
2018-12-24T17:20:45.917Z,51.26
2018-12-24T17:23:12.799Z,51.36
2018-12-24T17:25:38.795Z,51.43
2018-12-24T17:28:04.780Z,51.69
2018-12-24T17:30:30.807Z,51.83
2018-12-24T17:32:56.814Z,52.12
2018-12-24T17:35:22.786Z,52.10
2018-12-24T17:37:48.807Z,51.92
2018-12-24T17:40:14.826Z,52.11
2018-12-24T17:42:40.785Z,52.29
2018-12-24T17:45:06.895Z,52.52
2018-12-24T17:47:32.853Z,52.35
2018-12-24T17:49:58.832Z,52.47
2018-12-24T17:52:24.842Z,52.66
2018-12-24T17:54:50.838Z,52.37
2018-12-24T17:57:16.865Z,52.37
2018-12-24T17:59:42.875Z,52.38
2018-12-24T18:02:08.838Z,52.55
2018-12-24T18:04:34.871Z,52.30
2018-12-24T18:07:00.899Z,51.80
2018-12-24T18:09:26.901Z,51.68
2018-12-24T18:11:52.974Z,51.67
2018-12-24T18:14:19.021Z,51.55
2018-12-24T18:16:45.039Z,51.60
2018-12-24T18:19:11.025Z,51.47
2018-12-24T18:21:37.063Z,51.48
2018-12-24T18:24:03.164Z,51.74
2018-12-24T18:26:29.163Z,51.90
2018-12-24T18:28:55.225Z,52.07
2018-12-24T18:31:21.399Z,52.17
2018-12-24T18:33:47.384Z,51.96
2018-12-24T18:36:15.852Z,51.94
2018-12-24T18:38:41.820Z,52.09
2018-12-24T18:41:08.930Z,52.43
2018-12-24T18:43:34.973Z,52.15
2018-12-24T18:46:00.958Z,52.22
2018-12-24T18:48:26.932Z,52.36
2018-12-24T18:50:52.967Z,52.18
2018-12-24T18:53:19.120Z,52.20
2018-12-24T18:55:45.304Z,52.27
2018-12-24T18:58:11.298Z,52.13
2018-12-24T19:00:37.593Z,52.47
2018-12-24T19:03:03.601Z,52.29
2018-12-24T19:05:29.621Z,52.35
2018-12-24T19:07:55.639Z,52.37
2018-12-24T19:10:21.638Z,52.56
2018-12-24T19:12:47.791Z,52.16
2018-12-24T19:15:13.794Z,52.23
2018-12-24T19:17:41.628Z,52.20
2018-12-24T19:20:05.913Z,52.37
2018-12-24T19:22:31.880Z,52.19
2018-12-24T19:24:58.108Z,52.38
2018-12-24T19:27:24.094Z,52.37
2018-12-24T19:29:50.116Z,52.39
2018-12-24T19:32:16.139Z,52.38
2018-12-24T19:34:42.116Z,52.35
2018-12-24T19:37:08.079Z,52.39
2018-12-24T19:39:34.104Z,52.29
2018-12-24T19:42:00.092Z,52.01
2018-12-24T19:44:26.076Z,51.83
2018-12-24T19:46:52.170Z,51.74
2018-12-24T19:49:18.159Z,51.83
2018-12-24T19:51:44.202Z,51.76
2018-12-24T19:54:10.206Z,51.72
2018-12-24T19:56:36.621Z,51.67
2018-12-24T19:59:02.592Z,51.67
2018-12-24T20:01:28.589Z,51.58
2018-12-24T20:03:54.626Z,51.54
2018-12-24T20:06:20.982Z,51.40
2018-12-24T20:08:46.974Z,51.26
2018-12-24T20:11:13.101Z,51.07
2018-12-24T20:13:42.390Z,50.98
2018-12-24T20:16:05.438Z,50.96
2018-12-24T20:18:31.518Z,50.91
2018-12-24T20:21:00.059Z,50.82
2018-12-24T20:23:26.497Z,50.84
2018-12-24T20:25:52.509Z,50.85
2018-12-24T20:28:18.490Z,50.81
2018-12-24T20:30:44.484Z,50.88
2018-12-24T20:33:10.505Z,50.99
2018-12-24T20:35:36.516Z,51.09
2018-12-24T20:38:02.496Z,51.01
2018-12-24T20:40:28.513Z,51.02
2018-12-24T20:42:54.541Z,51.11
2018-12-24T20:45:20.526Z,51.13
2018-12-24T20:47:46.568Z,51.10
2018-12-24T20:50:12.541Z,51.10
2018-12-24T20:52:38.611Z,51.09
2018-12-24T20:55:04.595Z,51.12
2018-12-24T20:57:30.579Z,51.16
2018-12-24T20:59:56.623Z,51.08
2018-12-24T21:02:22.601Z,51.05
2018-12-24T21:04:48.638Z,51.02
2018-12-24T21:07:14.595Z,51.05
2018-12-24T21:09:40.580Z,51.00
2018-12-24T21:12:06.776Z,50.98
2018-12-24T21:14:32.799Z,51.00
2018-12-24T21:16:58.779Z,50.97
2018-12-24T21:19:24.874Z,50.91
2018-12-24T21:21:50.847Z,50.93
2018-12-24T21:24:16.874Z,50.89
2018-12-24T21:26:42.877Z,50.88
2018-12-24T21:29:08.884Z,50.88
2018-12-24T21:31:34.865Z,50.88
2018-12-24T21:34:00.892Z,50.88
2018-12-24T21:36:26.942Z,50.86
2018-12-24T21:38:52.936Z,50.86
2018-12-24T21:41:18.947Z,50.83
2018-12-24T21:43:45.137Z,50.82
2018-12-24T21:46:11.113Z,50.79
2018-12-24T21:48:37.160Z,50.81
2018-12-24T21:51:03.217Z,50.77
2018-12-24T21:53:29.212Z,50.76
2018-12-24T21:55:55.215Z,50.75
2018-12-24T21:58:21.204Z,50.74
2018-12-24T22:00:47.251Z,50.76
2018-12-24T22:03:13.270Z,50.84
2018-12-24T22:05:39.239Z,50.76
2018-12-24T22:08:05.261Z,50.74
2018-12-24T22:10:31.248Z,50.74
2018-12-24T22:12:57.267Z,50.72
2018-12-24T22:15:23.286Z,50.69
2018-12-24T22:17:49.291Z,50.66
2018-12-24T22:20:15.338Z,50.64
2018-12-24T22:22:41.345Z,50.62
2018-12-24T22:25:07.394Z,50.62
2018-12-24T22:27:33.389Z,50.59
2018-12-24T22:29:59.372Z,50.56
2018-12-24T22:32:25.416Z,50.55
2018-12-24T22:34:51.379Z,50.54
2018-12-24T22:37:17.388Z,50.49
2018-12-24T22:39:43.723Z,50.45
2018-12-24T22:42:10.175Z,50.45
2018-12-24T22:44:36.260Z,50.41
2018-12-24T22:47:02.352Z,50.39
2018-12-24T22:49:28.222Z,50.38
2018-12-24T22:51:54.243Z,50.36
2018-12-24T22:54:20.269Z,50.31
2018-12-24T22:56:46.276Z,50.32
2018-12-24T22:59:12.246Z,50.28
2018-12-24T23:01:38.291Z,50.25
2018-12-24T23:04:04.273Z,50.27
2018-12-24T23:06:30.257Z,50.24
2018-12-24T23:08:57.601Z,50.18
2018-12-24T23:11:23.591Z,50.15
2018-12-24T23:13:49.582Z,50.18
2018-12-24T23:16:15.618Z,50.14
2018-12-24T23:18:49.187Z,50.09
2018-12-24T23:21:07.570Z,50.08
2018-12-24T23:23:36.591Z,50.04
2018-12-24T23:26:02.692Z,50.02
2018-12-24T23:28:28.688Z,49.99
2018-12-24T23:30:54.669Z,50.05
2018-12-24T23:33:22.575Z,49.98
2018-12-24T23:35:48.459Z,49.93
2018-12-24T23:38:16.158Z,49.98
2018-12-24T23:40:42.209Z,49.95
2018-12-24T23:43:08.166Z,50.00
2018-12-24T23:45:34.164Z,49.93
2018-12-24T23:48:00.188Z,49.88
2018-12-24T23:50:26.193Z,49.86
2018-12-24T23:52:52.174Z,49.81
2018-12-24T23:55:20.482Z,49.75
2018-12-24T23:57:46.460Z,49.82
